Glacier Park Intl Information

FAA: GPI - ICAO: KGPI

Glacier Park Intl (Airport) Location

State Montana
County Flathead
City Kalispell
Glacier Park Intl (Airport) is 6 miles northeast of Kalispell, MT.
Latitude 48-18-37.8000N
Longitude 114-15-21.6000W
Elevation 2,976ft

Glacier Park Intl METARs

METAR KGPI 190055Z 01019G25KT 10SM OVC085 M03/M09 A3002 RMK AO2 PK WND 02026/0044 SLP193 T10331089
Altimeter 30.02"
Temperature -3.3°C (26.1°F)
Wind 10° at 19KT with gusts to 25KT
Clouds overcast at 8,500ft
Visibility 10.0mi
Time observed: 2022-01-19T00:55:00Z

Glacier Park Intl (Airport) Details

Status Operational
Activation February 1944
Ownership Public
Usage Public
Chart GREAT FALLS
ATC on-site Yes
Beacon schedule sunset-sunrise
Beacon color clear green

Glacier Park Intl (Airport) Contacts

Owner FLATHEAD MUNI ARPT AUTHORITY
Owner address 4170 HWY 2, KALISPELL, MT 59901
Owner phone 406-257-5994
Manager DOUG HAMILTON
Manager address 65 1ST AVE W, HOGELAND, MT 59529
Manager phone (406) 390-1374

Glacier Park Intl Radio Frequencies

Glacier Park Intl (Airport) Radio Frequencies

UNICOM 122.95
Common traffic advisory frequency (CTAF) 124.55